sensor_id;sensor_type;location;lat;lon;timestamp;pressure;altitude;pressure_sealevel;temperature;humidity
71778;BME280;59609;52.430;4.668;2023-03-31T00:01:25;100226.00;;;11.59;100.00
71778;BME280;59609;52.430;4.668;2023-03-31T00:03:51;100227.84;;;11.67;100.00
71778;BME280;59609;52.430;4.668;2023-03-31T00:06:16;100210.88;;;11.70;100.00
71778;BME280;59609;52.430;4.668;2023-03-31T00:08:45;100214.34;;;11.72;100.00
71778;BME280;59609;52.430;4.668;2023-03-31T00:11:15;100216.00;;;11.58;100.00
71778;BME280;59609;52.430;4.668;2023-03-31T00:13:40;100204.22;;;11.50;100.00
71778;BME280;59609;52.430;4.668;2023-03-31T00:16:08;100200.75;;;11.48;100.00
71778;BME280;59609;52.430;4.668;2023-03-31T00:18:34;100193.16;;;11.35;100.00
71778;BME280;59609;52.430;4.668;2023-03-31T00:21:11;100189.72;;;11.48;100.00
71778;BME280;59609;52.430;4.668;2023-03-31T00:23:57;100177.28;;;11.37;100.00
71778;BME280;59609;52.430;4.668;2023-03-31T00:26:23;100170.81;;;11.45;100.00
71778;BME280;59609;52.430;4.668;2023-03-31T00:28:49;100161.28;;;11.32;100.00
71778;BME280;59609;52.430;4.668;2023-03-31T00:31:15;100163.78;;;11.42;100.00
71778;BME280;59609;52.430;4.668;2023-03-31T00:33:40;100156.81;;;11.31;100.00
71778;BME280;59609;52.430;4.668;2023-03-31T00:36:06;100144.19;;;11.37;100.00
71778;BME280;59609;52.430;4.668;2023-03-31T00:38:33;100144.56;;;11.34;100.00
71778;BME280;59609;52.430;4.668;2023-03-31T00:41:00;100138.84;;;11.35;100.00
71778;BME280;59609;52.430;4.668;2023-03-31T00:45:55;100126.78;;;11.36;100.00
71778;BME280;59609;52.430;4.668;2023-03-31T00:48:25;100132.41;;;11.43;100.00
71778;BME280;59609;52.430;4.668;2023-03-31T00:50:56;100120.41;;;11.36;100.00
71778;BME280;59609;52.430;4.668;2023-03-31T00:53:27;100122.69;;;11.32;100.00
71778;BME280;59609;52.430;4.668;2023-03-31T00:55:58;100119.75;;;11.34;100.00
71778;BME280;59609;52.430;4.668;2023-03-31T00:58:26;100109.06;;;11.31;100.00
71778;BME280;59609;52.430;4.668;2023-03-31T01:00:57;100107.94;;;11.25;100.00
71778;BME280;59609;52.430;4.668;2023-03-31T01:03:24;100107.38;;;11.30;100.00
71778;BME280;59609;52.430;4.668;2023-03-31T01:05:54;100106.63;;;11.36;100.00
71778;BME280;59609;52.430;4.668;2023-03-31T01:08:24;100104.81;;;11.28;100.00
71778;BME280;59609;52.430;4.668;2023-03-31T01:10:57;100095.09;;;11.18;100.00
71778;BME280;59609;52.430;4.668;2023-03-31T01:13:23;100091.50;;;11.17;100.00
71778;BME280;59609;52.430;4.668;2023-03-31T01:15:53;100074.66;;;11.12;100.00
71778;BME280;59609;52.430;4.668;2023-03-31T01:18:19;100074.56;;;11.06;100.00
71778;BME280;59609;52.430;4.668;2023-03-31T01:23:34;100065.06;;;10.94;100.00
71778;BME280;59609;52.430;4.668;2023-03-31T01:46:27;100009.25;;;11.06;100.00
71778;BME280;59609;52.430;4.668;2023-03-31T01:51:33;100002.63;;;10.86;100.00
71778;BME280;59609;52.430;4.668;2023-03-31T01:56:51;99992.06;;;10.90;100.00
71778;BME280;59609;52.430;4.668;2023-03-31T01:59:21;99983.13;;;10.88;100.00
71778;BME280;59609;52.430;4.668;2023-03-31T02:05:12;99968.88;;;10.69;100.00
71778;BME280;59609;52.430;4.668;2023-03-31T02:07:48;99955.28;;;10.68;100.00
71778;BME280;59609;52.430;4.668;2023-03-31T02:10:17;99954.06;;;10.70;100.00
71778;BME280;59609;52.430;4.668;2023-03-31T02:12:44;99941.81;;;10.73;100.00
71778;BME280;59609;52.430;4.668;2023-03-31T02:15:15;99935.34;;;10.66;100.00
71778;BME280;59609;52.430;4.668;2023-03-31T02:17:47;99923.19;;;10.60;100.00
71778;BME280;59609;52.430;4.668;2023-03-31T02:20:16;99924.81;;;10.69;100.00
71778;BME280;59609;52.430;4.668;2023-03-31T02:22:47;99915.19;;;10.65;100.00
71778;BME280;59609;52.430;4.668;2023-03-31T02:25:16;99903.16;;;10.66;100.00
71778;BME280;59609;52.430;4.668;2023-03-31T02:27:44;99904.47;;;10.70;100.00
71778;BME280;59609;52.430;4.668;2023-03-31T02:30:12;99899.06;;;10.77;100.00
71778;BME280;59609;52.430;4.668;2023-03-31T02:32:40;99892.94;;;10.96;100.00
71778;BME280;59609;52.430;4.668;2023-03-31T02:35:09;99890.66;;;11.00;100.00
71778;BME280;59609;52.430;4.668;2023-03-31T02:37:36;99883.03;;;11.02;100.00
71778;BME280;59609;52.430;4.668;2023-03-31T02:40:06;99865.16;;;11.12;100.00
71778;BME280;59609;52.430;4.668;2023-03-31T02:42:35;99865.63;;;11.16;100.00
71778;BME280;59609;52.430;4.668;2023-03-31T02:45:37;99862.22;;;11.14;100.00
71778;BME280;59609;52.430;4.668;2023-03-31T02:47:48;99845.47;;;11.15;100.00
71778;BME280;59609;52.430;4.668;2023-03-31T02:50:13;99842.63;;;11.09;100.00
71778;BME280;59609;52.430;4.668;2023-03-31T02:52:49;99832.84;;;11.06;100.00
71778;BME280;59609;52.430;4.668;2023-03-31T03:19:28;99755.84;;;11.05;100.00
71778;BME280;59609;52.430;4.668;2023-03-31T03:21:53;99754.41;;;11.09;100.00
71778;BME280;59609;52.430;4.668;2023-03-31T03:24:19;99742.41;;;11.16;100.00
71778;BME280;59609;52.430;4.668;2023-03-31T03:26:46;99741.44;;;11.03;100.00
71778;BME280;59609;52.430;4.668;2023-03-31T03:29:12;99738.22;;;10.99;100.00
71778;BME280;59609;52.430;4.668;2023-03-31T03:31:39;99727.00;;;11.01;100.00
71778;BME280;59609;52.430;4.668;2023-03-31T03:34:04;99725.41;;;10.92;100.00
71778;BME280;59609;52.430;4.668;2023-03-31T03:36:31;99722.06;;;10.96;100.00
71778;BME280;59609;52.430;4.668;2023-03-31T03:38:57;99720.56;;;10.94;100.00
71778;BME280;59609;52.430;4.668;2023-03-31T03:41:23;99702.72;;;10.90;100.00
71778;BME280;59609;52.430;4.668;2023-03-31T03:43:48;99704.50;;;10.97;100.00
71778;BME280;59609;52.430;4.668;2023-03-31T03:46:13;99700.72;;;11.05;100.00
71778;BME280;59609;52.430;4.668;2023-03-31T03:48:39;99694.50;;;10.96;100.00
71778;BME280;59609;52.430;4.668;2023-03-31T03:51:05;99682.91;;;11.01;100.00
71778;BME280;59609;52.430;4.668;2023-03-31T03:53:30;99684.75;;;10.94;100.00
71778;BME280;59609;52.430;4.668;2023-03-31T03:55:56;99672.41;;;10.90;100.00
71778;BME280;59609;52.430;4.668;2023-03-31T03:58:23;99661.00;;;10.93;100.00
71778;BME280;59609;52.430;4.668;2023-03-31T04:00:48;99665.84;;;10.91;100.00
71778;BME280;59609;52.430;4.668;2023-03-31T04:03:14;99651.88;;;10.92;100.00
71778;BME280;59609;52.430;4.668;2023-03-31T04:05:40;99639.59;;;10.95;100.00
71778;BME280;59609;52.430;4.668;2023-03-31T04:08:06;99643.75;;;10.84;100.00
71778;BME280;59609;52.430;4.668;2023-03-31T04:10:33;99618.50;;;10.80;100.00
71778;BME280;59609;52.430;4.668;2023-03-31T04:12:58;99630.09;;;10.76;100.00
71778;BME280;59609;52.430;4.668;2023-03-31T04:15:24;99621.38;;;10.72;100.00
71778;BME280;59609;52.430;4.668;2023-03-31T04:17:49;99610.38;;;10.72;100.00
71778;BME280;59609;52.430;4.668;2023-03-31T04:20:19;99606.91;;;10.64;100.00
71778;BME280;59609;52.430;4.668;2023-03-31T04:22:45;99598.59;;;10.57;100.00
71778;BME280;59609;52.430;4.668;2023-03-31T04:25:15;99593.44;;;10.54;100.00
71778;BME280;59609;52.430;4.668;2023-03-31T04:27:45;99578.00;;;10.53;100.00
71778;BME280;59609;52.430;4.668;2023-03-31T04:30:17;99574.56;;;10.51;100.00
71778;BME280;59609;52.430;4.668;2023-03-31T04:32:50;99569.50;;;10.55;100.00
71778;BME280;59609;52.430;4.668;2023-03-31T04:35:19;99561.66;;;10.52;100.00
71778;BME280;59609;52.430;4.668;2023-03-31T04:37:49;99555.34;;;10.58;100.00
71778;BME280;59609;52.430;4.668;2023-03-31T04:40:16;99546.56;;;10.48;100.00
71778;BME280;59609;52.430;4.668;2023-03-31T04:42:43;99535.59;;;10.54;100.00
71778;BME280;59609;52.430;4.668;2023-03-31T04:45:10;99513.75;;;10.46;100.00
71778;BME280;59609;52.430;4.668;2023-03-31T04:47:35;99526.00;;;10.44;100.00
71778;BME280;59609;52.430;4.668;2023-03-31T04:50:01;99515.19;;;10.42;100.00
71778;BME280;59609;52.430;4.668;2023-03-31T04:52:26;99493.59;;;10.46;100.00
71778;BME280;59609;52.430;4.668;2023-03-31T04:54:52;99496.75;;;10.43;100.00
71778;BME280;59609;52.430;4.668;2023-03-31T04:57:17;99501.22;;;10.44;100.00
71778;BME280;59609;52.430;4.668;2023-03-31T04:59:43;99475.22;;;15.87;100.00
71778;BME280;59609;52.430;4.668;2023-03-31T05:02:08;99493.50;;;10.88;100.00
71778;BME280;59609;52.430;4.668;2023-03-31T05:04:33;99494.66;;;10.45;100.00
71778;BME280;59609;52.430;4.668;2023-03-31T05:06:59;99486.75;;;10.35;100.00
71778;BME280;59609;52.430;4.668;2023-03-31T05:09:24;99473.81;;;10.36;100.00
71778;BME280;59609;52.430;4.668;2023-03-31T05:11:50;99475.31;;;10.38;100.00
71778;BME280;59609;52.430;4.668;2023-03-31T05:14:15;99471.75;;;10.44;100.00
71778;BME280;59609;52.430;4.668;2023-03-31T05:16:41;99473.69;;;10.44;100.00
71778;BME280;59609;52.430;4.668;2023-03-31T05:19:07;99464.25;;;10.31;100.00
71778;BME280;59609;52.430;4.668;2023-03-31T05:21:32;99460.19;;;10.27;100.00
71778;BME280;59609;52.430;4.668;2023-03-31T05:23:58;99460.34;;;10.41;100.00
71778;BME280;59609;52.430;4.668;2023-03-31T05:26:24;99452.84;;;10.34;100.00
71778;BME280;59609;52.430;4.668;2023-03-31T05:28:51;99450.31;;;10.33;100.00
71778;BME280;59609;52.430;4.668;2023-03-31T05:31:17;99444.63;;;10.41;100.00
71778;BME280;59609;52.430;4.668;2023-03-31T05:33:42;99444.91;;;10.46;100.00
71778;BME280;59609;52.430;4.668;2023-03-31T05:36:10;99443.19;;;10.45;100.00
71778;BME280;59609;52.430;4.668;2023-03-31T05:38:35;99443.88;;;10.47;100.00
71778;BME280;59609;52.430;4.668;2023-03-31T05:41:01;99437.91;;;10.44;100.00
71778;BME280;59609;52.430;4.668;2023-03-31T05:43:27;99443.19;;;10.45;100.00
71778;BME280;59609;52.430;4.668;2023-03-31T05:45:52;99440.25;;;10.47;100.00
71778;BME280;59609;52.430;4.668;2023-03-31T05:48:18;99429.25;;;10.47;100.00
71778;BME280;59609;52.430;4.668;2023-03-31T05:50:43;99428.88;;;10.56;100.00
71778;BME280;59609;52.430;4.668;2023-03-31T05:53:09;99424.41;;;10.55;100.00
71778;BME280;59609;52.430;4.668;2023-03-31T05:55:35;99425.22;;;10.49;100.00
71778;BME280;59609;52.430;4.668;2023-03-31T05:58:00;99422.03;;;10.46;100.00
71778;BME280;59609;52.430;4.668;2023-03-31T06:00:26;99421.47;;;10.57;100.00
71778;BME280;59609;52.430;4.668;2023-03-31T06:02:51;99420.84;;;10.61;100.00
71778;BME280;59609;52.430;4.668;2023-03-31T06:05:16;99417.44;;;10.59;100.00
71778;BME280;59609;52.430;4.668;2023-03-31T06:07:42;99410.69;;;10.62;100.00
71778;BME280;59609;52.430;4.668;2023-03-31T06:10:08;99410.22;;;10.58;100.00
71778;BME280;59609;52.430;4.668;2023-03-31T06:12:35;99401.78;;;10.60;100.00
71778;BME280;59609;52.430;4.668;2023-03-31T06:15:00;99407.06;;;10.61;100.00
71778;BME280;59609;52.430;4.668;2023-03-31T06:17:26;99402.19;;;10.57;100.00
71778;BME280;59609;52.430;4.668;2023-03-31T06:19:52;99403.09;;;10.64;100.00
71778;BME280;59609;52.430;4.668;2023-03-31T06:22:17;99399.63;;;10.55;100.00
71778;BME280;59609;52.430;4.668;2023-03-31T06:24:42;99399.63;;;10.55;100.00
71778;BME280;59609;52.430;4.668;2023-03-31T06:27:08;99396.25;;;10.53;100.00
71778;BME280;59609;52.430;4.668;2023-03-31T06:29:33;99392.44;;;10.61;100.00
71778;BME280;59609;52.430;4.668;2023-03-31T06:31:59;99387.75;;;10.55;100.00
71778;BME280;59609;52.430;4.668;2023-03-31T06:34:25;99383.19;;;10.68;100.00
71778;BME280;59609;52.430;4.668;2023-03-31T06:36:50;99387.00;;;10.67;100.00
71778;BME280;59609;52.430;4.668;2023-03-31T06:39:17;99389.09;;;10.65;100.00
71778;BME280;59609;52.430;4.668;2023-03-31T06:41:45;99379.34;;;10.63;100.00
71778;BME280;59609;52.430;4.668;2023-03-31T06:44:10;99366.84;;;10.60;100.00
71778;BME280;59609;52.430;4.668;2023-03-31T06:46:36;99373.84;;;10.63;100.00
71778;BME280;59609;52.430;4.668;2023-03-31T06:49:02;99369.16;;;10.57;100.00
71778;BME280;59609;52.430;4.668;2023-03-31T06:51:27;99372.56;;;10.65;100.00
71778;BME280;59609;52.430;4.668;2023-03-31T06:53:52;99360.22;;;10.55;100.00
71778;BME280;59609;52.430;4.668;2023-03-31T06:56:18;99358.50;;;10.47;100.00
71778;BME280;59609;52.430;4.668;2023-03-31T06:58:43;99358.88;;;10.44;100.00
71778;BME280;59609;52.430;4.668;2023-03-31T07:01:10;99369.50;;;10.47;100.00
71778;BME280;59609;52.430;4.668;2023-03-31T07:03:35;99360.66;;;10.58;100.00
71778;BME280;59609;52.430;4.668;2023-03-31T07:06:01;99352.63;;;10.57;100.00
71778;BME280;59609;52.430;4.668;2023-03-31T07:08:29;99356.84;;;10.53;100.00
71778;BME280;59609;52.430;4.668;2023-03-31T07:10:56;99349.66;;;10.58;100.00
71778;BME280;59609;52.430;4.668;2023-03-31T07:13:24;99347.75;;;10.59;100.00
71778;BME280;59609;52.430;4.668;2023-03-31T07:15:50;99346.75;;;10.66;100.00
71778;BME280;59609;52.430;4.668;2023-03-31T07:18:16;99342.53;;;10.70;100.00
71778;BME280;59609;52.430;4.668;2023-03-31T07:20:46;99348.66;;;10.72;100.00
71778;BME280;59609;52.430;4.668;2023-03-31T07:23:11;99344.88;;;10.73;100.00
71778;BME280;59609;52.430;4.668;2023-03-31T07:25:39;99334.25;;;10.70;100.00
71778;BME280;59609;52.430;4.668;2023-03-31T07:28:05;99328.31;;;10.67;100.00
71778;BME280;59609;52.430;4.668;2023-03-31T07:30:31;99333.22;;;10.78;100.00
71778;BME280;59609;52.430;4.668;2023-03-31T07:32:57;99331.97;;;10.80;100.00
71778;BME280;59609;52.430;4.668;2023-03-31T07:35:22;99330.69;;;10.76;100.00
71778;BME280;59609;52.430;4.668;2023-03-31T07:37:48;99326.84;;;10.77;100.00
71778;BME280;59609;52.430;4.668;2023-03-31T07:40:20;99331.06;;;10.67;100.00
71778;BME280;59609;52.430;4.668;2023-03-31T07:42:46;99332.34;;;10.71;100.00
71778;BME280;59609;52.430;4.668;2023-03-31T07:45:14;99333.25;;;10.84;100.00
71778;BME280;59609;52.430;4.668;2023-03-31T07:47:40;99324.78;;;10.86;100.00
71778;BME280;59609;52.430;4.668;2023-03-31T07:50:06;99323.09;;;10.92;100.00
71778;BME280;59609;52.430;4.668;2023-03-31T07:52:34;99329.91;;;10.96;100.00
71778;BME280;59609;52.430;4.668;2023-03-31T07:55:00;99321.28;;;11.18;100.00
71778;BME280;59609;52.430;4.668;2023-03-31T07:57:25;99316.00;;;11.17;100.00
71778;BME280;59609;52.430;4.668;2023-03-31T07:59:51;99307.72;;;11.23;100.00
71778;BME280;59609;52.430;4.668;2023-03-31T08:02:17;99313.69;;;11.27;100.00
71778;BME280;59609;52.430;4.668;2023-03-31T08:04:43;99303.91;;;11.31;100.00
71778;BME280;59609;52.430;4.668;2023-03-31T08:07:09;99305.84;;;11.37;100.00
71778;BME280;59609;52.430;4.668;2023-03-31T08:09:36;99311.38;;;11.50;100.00
71778;BME280;59609;52.430;4.668;2023-03-31T08:12:02;99304.16;;;11.43;100.00
71778;BME280;59609;52.430;4.668;2023-03-31T08:14:27;99302.25;;;11.56;100.00
71778;BME280;59609;52.430;4.668;2023-03-31T08:16:52;99303.53;;;11.60;100.00
71778;BME280;59609;52.430;4.668;2023-03-31T08:19:20;99294.88;;;11.76;100.00
71778;BME280;59609;52.430;4.668;2023-03-31T08:21:45;99299.31;;;11.71;100.00
71778;BME280;59609;52.430;4.668;2023-03-31T08:24:10;99287.44;;;11.77;100.00
71778;BME280;59609;52.430;4.668;2023-03-31T08:26:36;99292.53;;;11.86;100.00
71778;BME280;59609;52.430;4.668;2023-03-31T08:29:01;99288.06;;;11.85;100.00
71778;BME280;59609;52.430;4.668;2023-03-31T08:31:28;99280.63;;;11.86;100.00
71778;BME280;59609;52.430;4.668;2023-03-31T08:33:54;99270.88;;;11.97;100.00
71778;BME280;59609;52.430;4.668;2023-03-31T08:36:20;99267.63;;;12.19;100.00
71778;BME280;59609;52.430;4.668;2023-03-31T08:38:48;99276.34;;;12.16;100.00
71778;BME280;59609;52.430;4.668;2023-03-31T08:43:49;99263.34;;;12.36;100.00
71778;BME280;59609;52.430;4.668;2023-03-31T08:46:16;99267.06;;;12.62;100.00
71778;BME280;59609;52.430;4.668;2023-03-31T08:48:53;99264.56;;;12.54;100.00
71778;BME280;59609;52.430;4.668;2023-03-31T08:51:26;99262.88;;;12.46;100.00
71778;BME280;59609;52.430;4.668;2023-03-31T08:54:06;99254.72;;;12.71;100.00
71778;BME280;59609;52.430;4.668;2023-03-31T08:56:40;99261.94;;;12.65;100.00
71778;BME280;59609;52.430;4.668;2023-03-31T08:59:17;99237.66;;;12.80;100.00
71778;BME280;59609;52.430;4.668;2023-03-31T09:02:49;99241.97;;;13.01;100.00
71778;BME280;59609;52.430;4.668;2023-03-31T09:07:47;99243.28;;;12.99;100.00
71778;BME280;59609;52.430;4.668;2023-03-31T09:15:41;99238.47;;;12.43;100.00
71778;BME280;59609;52.430;4.668;2023-03-31T09:18:26;99230.88;;;12.19;100.00
71778;BME280;59609;52.430;4.668;2023-03-31T09:20:57;99235.19;;;11.88;100.00
71778;BME280;59609;52.430;4.668;2023-03-31T09:25:55;99237.34;;;11.86;100.00
71778;BME280;59609;52.430;4.668;2023-03-31T09:28:36;99220.78;;;11.86;100.00
71778;BME280;59609;52.430;4.668;2023-03-31T09:31:12;99229.06;;;11.80;100.00
71778;BME280;59609;52.430;4.668;2023-03-31T09:33:44;99224.19;;;11.75;100.00
71778;BME280;59609;52.430;4.668;2023-03-31T09:36:18;99234.78;;;11.65;100.00
71778;BME280;59609;52.430;4.668;2023-03-31T09:38:45;99228.00;;;11.74;100.00
71778;BME280;59609;52.430;4.668;2023-03-31T09:41:13;99227.53;;;11.64;100.00
71778;BME280;59609;52.430;4.668;2023-03-31T09:43:39;99222.47;;;11.61;100.00
71778;BME280;59609;52.430;4.668;2023-03-31T09:46:33;99228.63;;;11.57;100.00
71778;BME280;59609;52.430;4.668;2023-03-31T09:49:10;99216.53;;;11.58;100.00
71778;BME280;59609;52.430;4.668;2023-03-31T09:51:41;99212.28;;;11.88;100.00
71778;BME280;59609;52.430;4.668;2023-03-31T09:54:14;99204.41;;;11.98;100.00
71778;BME280;59609;52.430;4.668;2023-03-31T09:56:46;99214.16;;;12.07;100.00
71778;BME280;59609;52.430;4.668;2023-03-31T09:59:31;99206.47;;;12.16;100.00
71778;BME280;59609;52.430;4.668;2023-03-31T10:01:58;99202.25;;;12.07;100.00
71778;BME280;59609;52.430;4.668;2023-03-31T10:04:28;99196.66;;;12.33;100.00
71778;BME280;59609;52.430;4.668;2023-03-31T10:06:55;99203.66;;;12.29;100.00
71778;BME280;59609;52.430;4.668;2023-03-31T10:09:25;99197.56;;;12.14;100.00
71778;BME280;59609;52.430;4.668;2023-03-31T10:11:57;99212.19;;;12.21;100.00
71778;BME280;59609;52.430;4.668;2023-03-31T10:14:26;99211.00;;;11.97;100.00
71778;BME280;59609;52.430;4.668;2023-03-31T10:16:54;99205.69;;;11.89;100.00
71778;BME280;59609;52.430;4.668;2023-03-31T10:19:25;99190.38;;;12.00;100.00
71778;BME280;59609;52.430;4.668;2023-03-31T10:24:45;99180.25;;;11.80;100.00
71778;BME280;59609;52.430;4.668;2023-03-31T10:27:21;99185.75;;;11.94;100.00
71778;BME280;59609;52.430;4.668;2023-03-31T10:29:51;99187.41;;;11.95;100.00
71778;BME280;59609;52.430;4.668;2023-03-31T10:32:28;99175.38;;;11.63;100.00
71778;BME280;59609;52.430;4.668;2023-03-31T10:34:55;99172.63;;;11.76;100.00
71778;BME280;59609;52.430;4.668;2023-03-31T10:37:24;99167.72;;;11.58;100.00
71778;BME280;59609;52.430;4.668;2023-03-31T10:40:03;99165.41;;;11.55;100.00
71778;BME280;59609;52.430;4.668;2023-03-31T10:42:34;99165.63;;;11.54;100.00
71778;BME280;59609;52.430;4.668;2023-03-31T10:45:17;99167.97;;;11.50;100.00
71778;BME280;59609;52.430;4.668;2023-03-31T10:47:49;99159.88;;;11.55;100.00
71778;BME280;59609;52.430;4.668;2023-03-31T10:50:17;99167.69;;;11.84;100.00
71778;BME280;59609;52.430;4.668;2023-03-31T10:52:47;99167.50;;;11.86;100.00
71778;BME280;59609;52.430;4.668;2023-03-31T10:55:25;99149.50;;;11.77;100.00
71778;BME280;59609;52.430;4.668;2023-03-31T10:58:01;99146.50;;;11.72;100.00
71778;BME280;59609;52.430;4.668;2023-03-31T11:01:01;99159.41;;;11.91;100.00
71778;BME280;59609;52.430;4.668;2023-03-31T11:06:09;99155.00;;;11.83;100.00
71778;BME280;59609;52.430;4.668;2023-03-31T11:11:47;99161.34;;;11.84;100.00
71778;BME280;59609;52.430;4.668;2023-03-31T11:22:39;99147.59;;;11.77;100.00
71778;BME280;59609;52.430;4.668;2023-03-31T11:28:17;99143.31;;;11.81;100.00
71778;BME280;59609;52.430;4.668;2023-03-31T11:39:18;99130.34;;;11.88;100.00
71778;BME280;59609;52.430;4.668;2023-03-31T11:41:40;99126.47;;;12.03;100.00
71778;BME280;59609;52.430;4.668;2023-03-31T11:44:15;99133.47;;;11.99;100.00
71778;BME280;59609;52.430;4.668;2023-03-31T11:51:46;99123.09;;;12.01;100.00
71778;BME280;59609;52.430;4.668;2023-03-31T11:54:24;99115.63;;;12.01;100.00
71778;BME280;59609;52.430;4.668;2023-03-31T11:56:52;99117.28;;;12.15;100.00
71778;BME280;59609;52.430;4.668;2023-03-31T11:59:20;99119.66;;;12.05;100.00
71778;BME280;59609;52.430;4.668;2023-03-31T12:04:52;99121.03;;;11.70;100.00
71778;BME280;59609;52.430;4.668;2023-03-31T12:12:51;99119.78;;;11.59;100.00
71778;BME280;59609;52.430;4.668;2023-03-31T12:15:23;99121.69;;;11.59;100.00
71778;BME280;59609;52.430;4.668;2023-03-31T12:18:02;99115.31;;;11.58;100.00
71778;BME280;59609;52.430;4.668;2023-03-31T12:20:48;99118.91;;;11.65;100.00
71778;BME280;59609;52.430;4.668;2023-03-31T12:23:18;99116.16;;;11.72;100.00
71778;BME280;59609;52.430;4.668;2023-03-31T12:28:11;99103.66;;;11.56;100.00
71778;BME280;59609;52.430;4.668;2023-03-31T12:30:38;99109.78;;;11.71;100.00
71778;BME280;59609;52.430;4.668;2023-03-31T12:33:21;99099.81;;;11.77;100.00
71778;BME280;59609;52.430;4.668;2023-03-31T12:36:22;99097.22;;;11.88;100.00
71778;BME280;59609;52.430;4.668;2023-03-31T12:44:52;99090.69;;;11.76;100.00
71778;BME280;59609;52.430;4.668;2023-03-31T12:47:42;99079.66;;;11.70;100.00
71778;BME280;59609;52.430;4.668;2023-03-31T12:55:47;99074.38;;;11.55;100.00
71778;BME280;59609;52.430;4.668;2023-03-31T13:09:04;99053.22;;;11.43;100.00
71778;BME280;59609;52.430;4.668;2023-03-31T13:14:00;99050.69;;;11.28;100.00
71778;BME280;59609;52.430;4.668;2023-03-31T13:16:31;99052.16;;;11.44;100.00
71778;BME280;59609;52.430;4.668;2023-03-31T13:18:58;99048.53;;;11.50;100.00
71778;BME280;59609;52.430;4.668;2023-03-31T13:21:24;99046.84;;;11.42;100.00
71778;BME280;59609;52.430;4.668;2023-03-31T13:23:50;99053.22;;;11.43;100.00
71778;BME280;59609;52.430;4.668;2023-03-31T13:26:35;99046.63;;;11.50;100.00
71778;BME280;59609;52.430;4.668;2023-03-31T13:34:56;99044.91;;;11.49;100.00
71778;BME280;59609;52.430;4.668;2023-03-31T13:48:50;99041.34;;;12.00;100.00
71778;BME280;59609;52.430;4.668;2023-03-31T13:51:28;99024.09;;;12.42;100.00
71778;BME280;59609;52.430;4.668;2023-03-31T14:06:52;99009.66;;;12.40;100.00
71778;BME280;59609;52.430;4.668;2023-03-31T14:09:26;99006.84;;;12.47;100.00
71778;BME280;59609;52.430;4.668;2023-03-31T14:11:53;99005.41;;;12.37;100.00
71778;BME280;59609;52.430;4.668;2023-03-31T14:14:19;99004.72;;;12.17;100.00
71778;BME280;59609;52.430;4.668;2023-03-31T14:16:59;99009.03;;;12.07;100.00
71778;BME280;59609;52.430;4.668;2023-03-31T14:27:35;99004.00;;;11.97;100.00
71778;BME280;59609;52.430;4.668;2023-03-31T14:32:48;99001.03;;;11.92;100.00
71778;BME280;59609;52.430;4.668;2023-03-31T14:35:25;99005.53;;;11.86;100.00
71778;BME280;59609;52.430;4.668;2023-03-31T14:37:54;98993.06;;;11.77;100.00
71778;BME280;59609;52.430;4.668;2023-03-31T14:40:21;98998.59;;;11.64;100.00
71778;BME280;59609;52.430;4.668;2023-03-31T14:42:46;99002.47;;;11.57;100.00
71778;BME280;59609;52.430;4.668;2023-03-31T14:45:22;99002.41;;;11.70;100.00
71778;BME280;59609;52.430;4.668;2023-03-31T14:48:12;98993.53;;;11.55;100.00
71778;BME280;59609;52.430;4.668;2023-03-31T14:50:44;98986.41;;;11.41;100.00
71778;BME280;59609;52.430;4.668;2023-03-31T14:53:21;98985.69;;;11.58;100.00
71778;BME280;59609;52.430;4.668;2023-03-31T14:55:48;98985.56;;;11.40;100.00
71778;BME280;59609;52.430;4.668;2023-03-31T14:58:22;98980.69;;;11.35;100.00
71778;BME280;59609;52.430;4.668;2023-03-31T15:00:51;98970.28;;;11.37;100.00
71778;BME280;59609;52.430;4.668;2023-03-31T15:03:16;98974.75;;;11.32;100.00
71778;BME280;59609;52.430;4.668;2023-03-31T15:05:42;98982.59;;;11.35;100.00
71778;BME280;59609;52.430;4.668;2023-03-31T15:08:20;98986.44;;;11.27;100.00
71778;BME280;59609;52.430;4.668;2023-03-31T15:10:52;98981.75;;;11.34;100.00
71778;BME280;59609;52.430;4.668;2023-03-31T15:13:32;98980.94;;;11.21;100.00
71778;BME280;59609;52.430;4.668;2023-03-31T15:15:59;98978.78;;;11.36;100.00
71778;BME280;59609;52.430;4.668;2023-03-31T15:18:26;98975.41;;;11.27;100.00
71778;BME280;59609;52.430;4.668;2023-03-31T15:20:52;98969.25;;;11.32;100.00
71778;BME280;59609;52.430;4.668;2023-03-31T15:23:27;98977.53;;;11.25;100.00
71778;BME280;59609;52.430;4.668;2023-03-31T15:26:11;98966.38;;;11.07;100.00
71778;BME280;59609;52.430;4.668;2023-03-31T15:28:49;98968.47;;;11.05;100.00
71778;BME280;59609;52.430;4.668;2023-03-31T15:31:16;98963.19;;;11.10;100.00
71778;BME280;59609;52.430;4.668;2023-03-31T15:33:41;98967.19;;;11.08;100.00
71778;BME280;59609;52.430;4.668;2023-03-31T15:36:12;98969.72;;;11.16;100.00
71778;BME280;59609;52.430;4.668;2023-03-31T15:38:38;98953.63;;;11.13;100.00
71778;BME280;59609;52.430;4.668;2023-03-31T15:41:10;98956.38;;;11.13;100.00
71778;BME280;59609;52.430;4.668;2023-03-31T15:44:03;98961.91;;;11.13;100.00
71778;BME280;59609;52.430;4.668;2023-03-31T15:49:03;98949.00;;;11.07;100.00
71778;BME280;59609;52.430;4.668;2023-03-31T15:51:35;98949.63;;;11.02;100.00
71778;BME280;59609;52.430;4.668;2023-03-31T15:54:01;98944.75;;;10.98;100.00
71778;BME280;59609;52.430;4.668;2023-03-31T15:58:59;98944.34;;;11.01;100.00
71778;BME280;59609;52.430;4.668;2023-03-31T16:01:32;98942.25;;;10.96;100.00
71778;BME280;59609;52.430;4.668;2023-03-31T16:04:00;98925.06;;;10.88;100.00
71778;BME280;59609;52.430;4.668;2023-03-31T16:06:46;98940.50;;;11.02;100.00